Time;durP1;ratioP1;P1;durP2;ratioP2;P2;SDS_P1;SDS_P2;PMS_P1;PMS_P2;Temp;Humidity;BMP_temperature;BMP_pressure;BME280_temperature;BME280_humidity;BME280_pressure;Samples;Min_cycle;Max_cycle;Signal;HPM_P1;HPM_P2
2020/12/20 00:01:40;;;;;;;9.53;8.67;;;6.40;99.90;;;;;;4977084;28;20208;-76
2020/12/20 00:04:07;;;;;;;9.80;8.90;;;6.40;99.90;;;;;;4987471;28;20275;-76
2020/12/20 00:06:37;;;;;;;10.17;9.13;;;6.50;99.90;;;;;;4987602;28;20430;-77
2020/12/20 00:09:16;;;;;;;10.17;9.27;;;6.40;99.90;;;;;;4991131;28;20471;-78
2020/12/20 00:11:42;;;;;;;10.13;9.13;;;6.40;99.90;;;;;;4994093;28;20966;-77
2020/12/20 00:14:27;;;;;;;11.30;10.27;;;6.40;99.90;;;;;;5005344;28;20932;-78
2020/12/20 00:17:10;;;;;;;11.43;9.57;;;6.30;99.90;;;;;;4999087;28;21000;-77
2020/12/20 00:19:37;;;;;;;9.90;8.90;;;6.30;99.90;;;;;;4998203;28;20442;-77
2020/12/20 00:22:05;;;;;;;11.13;10.03;;;6.30;99.90;;;;;;4997388;28;20524;-79
2020/12/20 00:24:31;;;;;;;9.83;8.93;;;6.30;99.90;;;;;;4986003;28;20487;-78
2020/12/20 00:26:58;;;;;;;9.40;8.60;;;6.30;99.90;;;;;;4984392;28;20540;-78
2020/12/20 00:29:24;;;;;;;9.33;8.53;;;6.30;99.90;;;;;;4994124;28;20452;-77
2020/12/20 00:31:50;;;;;;;10.40;9.30;;;6.30;99.90;;;;;;5004908;28;20545;-78
2020/12/20 00:34:16;;;;;;;9.70;8.80;;;6.20;99.90;;;;;;5005671;28;20510;-77
2020/12/20 00:36:44;;;;;;;9.50;8.70;;;6.30;99.90;;;;;;4987624;28;20180;-78
2020/12/20 00:39:10;;;;;;;9.87;8.87;;;6.30;99.90;;;;;;5001039;28;20522;-77
2020/12/20 00:41:35;;;;;;;8.80;8.10;;;6.30;99.90;;;;;;5000251;28;20895;-78
2020/12/20 00:44:01;;;;;;;9.27;8.37;;;6.30;99.90;;;;;;4997120;28;20742;-77
2020/12/20 00:46:26;;;;;;;10.83;9.90;;;6.30;99.90;;;;;;5002622;28;20754;-77
2020/12/20 00:48:52;;;;;;;10.03;9.17;;;6.30;99.90;;;;;;5005516;28;20216;-78
2020/12/20 00:51:17;;;;;;;9.97;9.07;;;6.40;99.90;;;;;;5001360;28;20271;-77
2020/12/20 00:53:43;;;;;;;9.23;8.10;;;6.40;99.90;;;;;;4981421;28;20187;-78
2020/12/20 00:56:13;;;;;;;9.97;9.03;;;6.40;99.90;;;;;;5001010;28;20184;-78
2020/12/20 00:58:38;;;;;;;9.33;8.40;;;6.40;99.90;;;;;;4986981;28;20255;-77
2020/12/20 01:01:04;;;;;;;9.90;8.90;;;6.40;99.90;;;;;;5002433;28;20502;-78
2020/12/20 01:03:29;;;;;;;9.50;8.60;;;6.40;99.90;;;;;;4988038;28;20198;-77
2020/12/20 01:05:55;;;;;;;9.30;8.50;;;6.40;99.90;;;;;;5005373;28;20184;-77
2020/12/20 01:08:20;;;;;;;10.30;9.30;;;6.40;99.90;;;;;;5001319;28;20216;-78
2020/12/20 01:10:47;;;;;;;9.40;8.50;;;6.40;99.90;;;;;;5002289;28;20538;-77
2020/12/20 01:13:12;;;;;;;10.80;9.80;;;6.30;99.90;;;;;;4992488;28;20212;-78
2020/12/20 01:15:38;;;;;;;9.63;8.73;;;6.30;99.90;;;;;;5000303;28;20437;-77
2020/12/20 01:18:03;;;;;;;10.10;9.03;;;6.20;99.90;;;;;;5008268;28;20199;-77
2020/12/20 01:20:29;;;;;;;10.13;9.13;;;6.30;99.90;;;;;;4986315;28;20568;-77
2020/12/20 01:22:54;;;;;;;10.23;9.33;;;6.30;99.90;;;;;;5008502;28;20211;-77
2020/12/20 01:25:20;;;;;;;11.17;10.17;;;6.40;99.90;;;;;;4990177;28;20198;-78
2020/12/20 01:27:45;;;;;;;9.07;8.33;;;6.30;99.90;;;;;;4990760;28;20216;-78
2020/12/20 01:30:11;;;;;;;9.83;8.93;;;6.20;99.90;;;;;;5007270;28;20556;-77
2020/12/20 01:32:37;;;;;;;10.63;9.63;;;6.30;99.90;;;;;;4981191;28;20212;-77
2020/12/20 01:35:03;;;;;;;9.87;8.97;;;6.30;99.90;;;;;;4985908;28;20571;-77
2020/12/20 01:37:31;;;;;;;9.90;8.90;;;6.20;99.90;;;;;;5009506;28;20629;-77
2020/12/20 01:39:57;;;;;;;10.07;9.10;;;6.10;99.90;;;;;;4980242;28;20443;-77
2020/12/20 01:42:22;;;;;;;10.53;9.50;;;6.20;99.90;;;;;;5005403;28;20469;-77
2020/12/20 01:44:48;;;;;;;10.20;9.20;;;6.10;99.90;;;;;;4996826;28;20196;-76
2020/12/20 01:47:15;;;;;;;9.50;8.70;;;6.20;99.90;;;;;;4989056;28;20253;-77
2020/12/20 01:49:41;;;;;;;10.83;9.83;;;6.00;99.90;;;;;;5007711;28;20188;-77
2020/12/20 01:52:07;;;;;;;9.77;8.73;;;6.00;99.90;;;;;;4980735;28;20596;-75
2020/12/20 01:54:32;;;;;;;9.80;8.90;;;6.10;99.90;;;;;;4990397;28;20179;-77
2020/12/20 01:57:01;;;;;;;9.43;8.50;;;5.90;99.90;;;;;;5004683;28;20715;-78
2020/12/20 01:59:26;;;;;;;10.63;9.63;;;5.90;99.90;;;;;;4989196;28;20207;-77
2020/12/20 02:01:52;;;;;;;10.60;9.60;;;5.90;99.90;;;;;;4987572;28;20497;-77
2020/12/20 02:04:18;;;;;;;9.53;8.63;;;6.00;99.90;;;;;;4989259;28;20184;-76
2020/12/20 02:06:44;;;;;;;11.50;10.40;;;6.00;99.90;;;;;;4989766;28;20198;-76
2020/12/20 02:09:10;;;;;;;10.20;9.40;;;6.00;99.90;;;;;;4989410;28;20683;-76
2020/12/20 02:11:35;;;;;;;9.77;8.87;;;6.00;99.90;;;;;;5007549;28;20489;-77
2020/12/20 02:14:01;;;;;;;10.57;9.53;;;5.90;99.90;;;;;;4997569;28;20200;-77
2020/12/20 02:16:26;;;;;;;10.40;9.40;;;5.90;99.90;;;;;;4988677;28;20191;-76
2020/12/20 02:18:52;;;;;;;10.53;9.53;;;5.90;99.90;;;;;;5007918;28;20562;-78
2020/12/20 02:21:19;;;;;;;10.27;9.37;;;6.00;99.90;;;;;;5006679;28;20192;-75
2020/12/20 02:23:50;;;;;;;12.47;9.47;;;6.00;99.90;;;;;;4986965;28;20293;-77
2020/12/20 02:26:17;;;;;;;10.80;9.50;;;5.90;99.90;;;;;;4998640;28;20466;-77
2020/12/20 02:28:43;;;;;;;10.20;9.30;;;5.90;99.90;;;;;;4985474;28;20533;-76
2020/12/20 02:31:09;;;;;;;10.07;9.10;;;5.90;99.90;;;;;;4979105;28;20438;-79
2020/12/20 02:33:35;;;;;;;10.77;9.77;;;5.80;99.90;;;;;;4989108;28;20219;-78
2020/12/20 02:36:01;;;;;;;10.50;9.60;;;5.80;99.90;;;;;;4978413;28;20751;-78
2020/12/20 02:38:29;;;;;;;10.43;9.43;;;5.90;99.90;;;;;;5001734;28;20841;-78
2020/12/20 02:40:55;;;;;;;10.53;9.23;;;5.90;99.90;;;;;;4997760;28;20189;-76
2020/12/20 02:43:20;;;;;;;11.23;10.10;;;5.90;99.90;;;;;;4982506;28;20462;-77
2020/12/20 02:45:46;;;;;;;10.60;9.57;;;6.00;99.90;;;;;;5000032;28;20427;-77
2020/12/20 02:48:12;;;;;;;9.73;8.77;;;5.90;99.90;;;;;;5007144;28;20215;-78
2020/12/20 02:50:37;;;;;;;10.50;9.57;;;5.80;99.90;;;;;;4989109;28;20245;-78
2020/12/20 02:53:03;;;;;;;11.63;10.37;;;5.90;99.90;;;;;;4989765;28;20221;-76
2020/12/20 02:55:28;;;;;;;9.87;8.97;;;6.00;99.90;;;;;;4982031;28;20206;-76
2020/12/20 02:57:54;;;;;;;10.50;9.60;;;5.90;99.90;;;;;;5005032;28;20658;-76
2020/12/20 03:00:20;;;;;;;10.77;9.67;;;5.90;99.90;;;;;;4980535;28;20602;-77
2020/12/20 03:02:46;;;;;;;10.30;9.40;;;5.90;99.90;;;;;;5006900;28;20257;-76
2020/12/20 03:05:12;;;;;;;11.50;10.40;;;5.90;99.90;;;;;;5002791;28;20442;-76
2020/12/20 03:07:38;;;;;;;10.40;9.40;;;5.90;99.90;;;;;;4991703;28;20585;-77
2020/12/20 03:10:04;;;;;;;10.83;9.83;;;5.90;99.90;;;;;;5006023;28;20607;-76
2020/12/20 03:12:30;;;;;;;10.20;9.20;;;5.90;99.90;;;;;;4986009;28;20598;-77
2020/12/20 03:14:55;;;;;;;10.27;9.27;;;5.90;99.90;;;;;;4988164;28;20430;-77
2020/12/20 03:17:21;;;;;;;10.37;9.27;;;5.90;99.90;;;;;;5001091;28;20206;-77
2020/12/20 03:19:46;;;;;;;10.43;9.33;;;5.90;99.90;;;;;;5005586;28;20263;-77
2020/12/20 03:22:12;;;;;;;10.10;9.10;;;6.00;99.90;;;;;;5004673;28;20230;-79
2020/12/20 03:24:37;;;;;;;10.50;9.40;;;6.00;99.90;;;;;;4989278;28;20198;-77
2020/12/20 03:27:03;;;;;;;10.43;9.50;;;6.00;99.90;;;;;;5005187;28;20270;-77
2020/12/20 03:29:28;;;;;;;10.23;9.33;;;5.90;99.90;;;;;;4996691;28;20254;-77
2020/12/20 03:31:54;;;;;;;11.20;9.93;;;6.00;99.90;;;;;;5004253;28;20207;-77
2020/12/20 03:34:19;;;;;;;11.47;9.93;;;6.00;99.90;;;;;;4977683;28;20195;-76
2020/12/20 03:36:45;;;;;;;10.83;9.83;;;6.10;99.90;;;;;;4982066;28;20556;-77
2020/12/20 03:39:10;;;;;;;9.40;8.50;;;6.20;99.90;;;;;;5005789;28;20188;-77
2020/12/20 03:41:36;;;;;;;10.40;9.40;;;6.10;99.90;;;;;;5005468;28;20208;-78
2020/12/20 03:44:02;;;;;;;9.97;9.07;;;6.00;99.90;;;;;;4988244;28;20336;-77
2020/12/20 03:46:27;;;;;;;10.13;9.17;;;6.10;99.90;;;;;;4987220;28;20198;-76
2020/12/20 03:48:53;;;;;;;9.20;8.40;;;6.00;99.90;;;;;;4994007;28;20208;-75
2020/12/20 03:51:19;;;;;;;13.70;9.43;;;5.90;99.90;;;;;;5006111;28;20230;-79
2020/12/20 03:53:44;;;;;;;12.43;9.80;;;5.90;99.90;;;;;;4995174;28;20184;-76
2020/12/20 03:56:10;;;;;;;11.13;10.03;;;5.90;99.90;;;;;;4985291;28;20176;-77
2020/12/20 03:58:35;;;;;;;10.73;9.73;;;5.80;99.90;;;;;;4988583;28;20610;-76
2020/12/20 04:01:01;;;;;;;10.27;9.27;;;5.90;99.90;;;;;;5006174;28;20203;-77
2020/12/20 04:03:27;;;;;;;10.07;9.10;;;5.90;99.90;;;;;;5004443;28;20227;-77
2020/12/20 04:05:52;;;;;;;10.57;9.57;;;5.90;99.90;;;;;;4988225;28;20435;-77
2020/12/20 04:08:18;;;;;;;10.30;9.30;;;5.90;99.90;;;;;;4987905;28;20292;-76
2020/12/20 04:10:43;;;;;;;9.93;9.00;;;5.90;99.90;;;;;;4980035;28;20207;-78
2020/12/20 04:13:09;;;;;;;10.13;9.13;;;6.00;99.90;;;;;;4987351;28;20212;-79
2020/12/20 04:15:35;;;;;;;9.03;8.23;;;6.00;99.90;;;;;;4978796;28;21708;-78
2020/12/20 04:18:00;;;;;;;10.50;9.57;;;6.00;99.90;;;;;;4986817;28;20604;-77
2020/12/20 04:20:26;;;;;;;9.60;8.70;;;6.00;99.90;;;;;;4988024;28;20597;-77
2020/12/20 04:22:51;;;;;;;10.00;9.00;;;6.10;99.90;;;;;;4986881;28;20204;-77
2020/12/20 04:25:17;;;;;;;10.40;9.50;;;6.10;99.90;;;;;;4995826;28;20184;-79
2020/12/20 04:27:42;;;;;;;9.53;8.70;;;6.10;99.90;;;;;;4987048;28;20207;-77
2020/12/20 04:30:08;;;;;;;10.07;9.17;;;6.10;99.90;;;;;;5003735;28;20704;-78
2020/12/20 04:32:34;;;;;;;10.07;9.27;;;6.10;99.90;;;;;;4993634;28;20569;-77
2020/12/20 04:34:59;;;;;;;10.00;9.07;;;6.10;99.90;;;;;;4984996;28;20257;-78
2020/12/20 04:37:25;;;;;;;8.70;7.90;;;6.10;99.90;;;;;;5005599;28;20261;-76
2020/12/20 04:39:50;;;;;;;10.23;9.23;;;6.10;99.90;;;;;;4980134;28;20188;-76
2020/12/20 04:42:16;;;;;;;11.77;10.17;;;6.10;99.90;;;;;;5003136;28;20672;-76
2020/12/20 04:44:42;;;;;;;9.50;8.60;;;6.10;99.90;;;;;;5005061;28;20674;-78
2020/12/20 04:47:09;;;;;;;8.83;7.97;;;6.10;99.90;;;;;;4986122;28;20294;-78
2020/12/20 04:49:36;;;;;;;9.40;8.53;;;6.10;99.90;;;;;;4986400;28;20533;-77
2020/12/20 04:52:02;;;;;;;9.23;8.43;;;6.00;99.90;;;;;;4987337;28;20439;-78
2020/12/20 04:54:29;;;;;;;10.13;9.20;;;6.10;99.90;;;;;;4988232;28;20431;-77
2020/12/20 04:56:55;;;;;;;13.13;9.40;;;6.10;99.90;;;;;;4983308;28;20434;-76
2020/12/20 04:59:20;;;;;;;9.70;8.80;;;6.10;99.90;;;;;;5005988;28;20443;-77
2020/12/20 05:01:46;;;;;;;9.20;8.33;;;6.10;99.90;;;;;;4981102;28;20766;-76
2020/12/20 05:04:12;;;;;;;10.73;9.70;;;6.10;99.90;;;;;;5005341;28;20289;-77
2020/12/20 05:06:37;;;;;;;10.40;9.50;;;6.10;99.90;;;;;;4991987;28;20238;-77
2020/12/20 05:09:04;;;;;;;8.73;7.80;;;6.10;99.90;;;;;;4994334;28;20620;-76
2020/12/20 05:11:36;;;;;;;10.63;9.53;;;6.00;99.90;;;;;;4991607;28;20208;-75
2020/12/20 05:14:03;;;;;;;9.90;8.90;;;6.10;99.90;;;;;;5001756;28;20940;-77
2020/12/20 05:16:37;;;;;;;10.17;9.17;;;6.00;99.90;;;;;;5008072;28;20422;-76
2020/12/20 05:19:04;;;;;;;9.97;9.07;;;6.00;99.90;;;;;;4999165;28;20428;-79
2020/12/20 05:21:30;;;;;;;11.10;10.07;;;6.00;99.90;;;;;;4989329;28;20481;-76
2020/12/20 05:23:57;;;;;;;11.00;10.00;;;6.00;99.90;;;;;;4991020;28;20419;-77
2020/12/20 05:26:31;;;;;;;11.60;10.50;;;6.00;99.90;;;;;;5007011;28;20478;-77
2020/12/20 05:29:11;;;;;;;9.77;8.87;;;6.10;99.90;;;;;;5006101;28;20569;-78
2020/12/20 05:31:37;;;;;;;11.80;10.63;;;6.10;99.90;;;;;;5002779;28;20447;-79
2020/12/20 05:34:04;;;;;;;12.60;11.50;;;6.10;99.90;;;;;;4991119;28;20458;-79
2020/12/20 05:36:30;;;;;;;11.93;10.73;;;6.10;99.90;;;;;;5003512;28;20490;-77
2020/12/20 05:39:15;;;;;;;11.13;10.03;;;6.10;99.90;;;;;;4987973;28;20480;-79
2020/12/20 05:41:41;;;;;;;11.00;10.00;;;6.10;99.90;;;;;;4997683;28;20216;-78
2020/12/20 05:44:14;;;;;;;11.70;10.50;;;6.00;99.90;;;;;;5008310;28;20576;-80
2020/12/20 05:46:42;;;;;;;11.50;10.03;;;6.20;99.90;;;;;;5009637;28;20448;-77
2020/12/20 05:49:21;;;;;;;11.43;10.33;;;6.10;99.90;;;;;;5005344;28;20473;-78
2020/12/20 05:52:01;;;;;;;10.33;9.30;;;6.10;99.90;;;;;;5009270;28;20891;-78
2020/12/20 05:54:31;;;;;;;12.37;10.73;;;6.00;99.90;;;;;;4999801;28;20481;-80
2020/12/20 05:57:17;;;;;;;13.47;11.97;;;6.00;99.90;;;;;;5010440;28;20430;-79
2020/12/20 05:59:44;;;;;;;12.27;11.13;;;5.90;99.90;;;;;;5012109;28;20788;-78
2020/12/20 06:02:10;;;;;;;11.30;9.93;;;5.90;99.90;;;;;;5010908;28;20467;-75
2020/12/20 06:04:37;;;;;;;12.30;11.10;;;5.90;99.90;;;;;;5007432;28;20505;-76
2020/12/20 06:07:05;;;;;;;12.30;11.10;;;5.90;99.90;;;;;;5011209;28;20542;-76
2020/12/20 06:09:31;;;;;;;11.40;10.30;;;5.90;99.90;;;;;;5010206;28;20430;-74
2020/12/20 06:11:59;;;;;;;11.97;10.73;;;5.90;99.90;;;;;;5007428;28;20462;-75
2020/12/20 06:14:29;;;;;;;12.60;11.30;;;5.90;99.90;;;;;;5007371;28;20418;-76
2020/12/20 06:17:12;;;;;;;12.03;10.83;;;5.90;99.90;;;;;;4986309;28;20502;-76
2020/12/20 06:19:51;;;;;;;13.20;11.83;;;6.00;99.90;;;;;;4991019;28;21042;-78
2020/12/20 06:22:19;;;;;;;12.43;11.13;;;6.00;99.90;;;;;;4991387;28;20450;-79
2020/12/20 06:24:52;;;;;;;12.67;10.83;;;6.00;99.90;;;;;;4993309;28;20419;-79
2020/12/20 06:27:20;;;;;;;13.57;11.97;;;6.10;99.90;;;;;;5011611;28;20406;-80
2020/12/20 06:29:49;;;;;;;13.00;11.20;;;6.00;99.90;;;;;;5013088;28;20429;-79
2020/12/20 06:32:19;;;;;;;12.77;11.50;;;5.90;99.90;;;;;;4994444;28;20438;-79
2020/12/20 06:34:45;;;;;;;12.57;11.40;;;5.90;99.90;;;;;;4993899;28;20470;-82
2020/12/20 06:37:12;;;;;;;11.90;10.70;;;5.90;99.90;;;;;;4992987;28;20534;-79
2020/12/20 06:39:41;;;;;;;11.83;10.63;;;6.00;99.90;;;;;;4983099;28;20185;-81
2020/12/20 06:42:07;;;;;;;14.07;12.67;;;6.00;99.90;;;;;;4990165;28;20518;-79
2020/12/20 06:44:32;;;;;;;13.27;11.47;;;5.90;99.90;;;;;;4984376;28;20814;-80
2020/12/20 06:46:59;;;;;;;11.37;10.27;;;5.90;99.90;;;;;;5004969;28;20206;-79
2020/12/20 06:49:39;;;;;;;12.87;11.57;;;5.80;99.90;;;;;;4995817;28;20574;-79
2020/12/20 06:52:23;;;;;;;13.30;11.90;;;5.90;99.90;;;;;;5007544;28;20451;-78
2020/12/20 06:55:09;;;;;;;11.83;10.63;;;5.90;99.90;;;;;;5005407;28;20470;-78
2020/12/20 06:57:36;;;;;;;11.57;10.37;;;5.90;99.90;;;;;;4990010;28;20815;-78
2020/12/20 07:00:05;;;;;;;11.33;10.23;;;5.90;99.90;;;;;;5007976;28;20483;-79
2020/12/20 07:02:45;;;;;;;11.87;10.73;;;5.90;99.90;;;;;;4992022;28;20442;-79
2020/12/20 07:05:35;;;;;;;12.70;11.50;;;6.00;99.90;;;;;;5009304;28;20989;-80
2020/12/20 07:08:30;;;;;;;12.83;11.63;;;6.00;99.90;;;;;;5004006;28;20464;-80
2020/12/20 07:11:01;;;;;;;11.20;10.10;;;6.00;99.90;;;;;;5011035;28;20449;-81
2020/12/20 07:13:35;;;;;;;12.47;11.07;;;6.00;99.90;;;;;;5013766;28;20474;-80
2020/12/20 07:16:11;;;;;;;13.00;11.63;;;6.00;99.90;;;;;;5009565;28;20482;-76
2020/12/20 07:18:56;;;;;;;12.40;11.20;;;5.90;99.90;;;;;;5005455;28;20444;-79
2020/12/20 07:21:28;;;;;;;11.77;10.57;;;5.90;99.90;;;;;;4991906;28;20829;-80
2020/12/20 07:24:19;;;;;;;12.20;10.97;;;6.00;99.90;;;;;;4991893;28;20465;-79
2020/12/20 07:26:45;;;;;;;11.80;10.50;;;6.00;99.90;;;;;;5000031;28;20693;-81
2020/12/20 07:29:11;;;;;;;12.40;11.20;;;6.10;99.90;;;;;;4988271;28;21046;-80
2020/12/20 07:31:37;;;;;;;13.03;11.73;;;6.10;99.90;;;;;;5006281;28;20438;-80
2020/12/20 07:34:04;;;;;;;12.67;11.37;;;6.00;99.90;;;;;;4992972;28;20199;-81
2020/12/20 07:36:29;;;;;;;13.83;12.27;;;6.10;99.90;;;;;;4989219;28;20215;-79
2020/12/20 07:38:55;;;;;;;12.40;10.40;;;6.10;99.90;;;;;;4993763;28;20458;-78
2020/12/20 07:41:24;;;;;;;13.20;11.80;;;6.00;99.90;;;;;;4987733;28;20180;-79
2020/12/20 07:43:50;;;;;;;14.93;12.57;;;6.10;99.90;;;;;;5012892;28;20609;-78
2020/12/20 07:46:16;;;;;;;12.20;11.10;;;6.00;99.90;;;;;;4992828;28;20433;-79
2020/12/20 07:48:42;;;;;;;13.37;11.87;;;6.00;99.90;;;;;;4989529;28;20474;-79
2020/12/20 07:51:16;;;;;;;12.57;11.17;;;6.00;99.90;;;;;;5000654;28;20434;-80
2020/12/20 07:53:59;;;;;;;11.80;10.60;;;6.00;99.90;;;;;;5009796;28;20417;-82
2020/12/20 07:56:32;;;;;;;13.90;12.13;;;6.00;99.90;;;;;;4983736;28;20442;-79
2020/12/20 07:59:07;;;;;;;13.73;11.50;;;6.00;99.90;;;;;;4985019;28;20497;-78
2020/12/20 08:01:34;;;;;;;14.83;12.33;;;6.10;99.90;;;;;;4992895;28;20494;-79
2020/12/20 08:04:14;;;;;;;15.67;12.40;;;6.10;99.90;;;;;;5008308;28;20441;-78
2020/12/20 08:06:48;;;;;;;16.57;12.90;;;6.00;99.90;;;;;;4998865;28;20422;-79
2020/12/20 08:09:14;;;;;;;13.17;11.77;;;6.10;99.90;;;;;;4992056;28;20473;-79
2020/12/20 08:11:41;;;;;;;13.87;12.37;;;6.10;99.90;;;;;;5009389;28;20469;-79
2020/12/20 08:14:08;;;;;;;14.50;13.00;;;6.20;99.90;;;;;;5005412;28;20423;-79
2020/12/20 08:16:36;;;;;;;15.13;12.23;;;6.20;99.90;;;;;;4981381;28;20485;-79
2020/12/20 08:19:28;;;;;;;13.73;12.43;;;6.10;99.90;;;;;;4982104;28;20442;-79
2020/12/20 08:22:06;;;;;;;12.83;11.63;;;6.10;99.90;;;;;;5006832;28;20451;-79
2020/12/20 08:24:41;;;;;;;14.20;12.30;;;6.10;99.90;;;;;;4978007;28;20530;-79
2020/12/20 08:27:25;;;;;;;13.37;10.63;;;6.20;99.90;;;;;;5016066;28;20433;-79
2020/12/20 08:29:54;;;;;;;13.60;12.20;;;6.20;99.90;;;;;;4993354;28;20434;-80
2020/12/20 08:32:26;;;;;;;13.30;11.90;;;6.20;99.90;;;;;;5015277;28;20571;-80
2020/12/20 08:34:52;;;;;;;14.57;12.97;;;6.20;99.90;;;;;;4987077;28;20431;-79
2020/12/20 08:37:20;;;;;;;14.27;12.87;;;6.20;99.90;;;;;;4995575;28;20434;-79
2020/12/20 08:39:46;;;;;;;14.13;12.20;;;6.30;99.90;;;;;;5011061;28;20629;-79
2020/12/20 08:42:17;;;;;;;16.60;13.37;;;6.30;99.90;;;;;;5007259;28;20473;-78
2020/12/20 08:44:45;;;;;;;14.17;12.67;;;6.30;99.90;;;;;;4989321;28;20423;-78
2020/12/20 08:47:16;;;;;;;13.63;12.10;;;6.40;99.90;;;;;;5004725;28;20431;-78
2020/12/20 08:49:54;;;;;;;13.33;12.07;;;6.40;99.90;;;;;;5007214;28;20548;-76
2020/12/20 08:52:19;;;;;;;12.93;11.73;;;6.50;99.90;;;;;;4992889;28;20480;-79
2020/12/20 08:54:50;;;;;;;13.63;12.30;;;6.50;99.90;;;;;;5007894;28;20497;-80
2020/12/20 08:57:16;;;;;;;14.80;12.80;;;6.50;99.90;;;;;;4992751;28;20387;-79
2020/12/20 08:59:46;;;;;;;14.10;12.60;;;6.50;99.90;;;;;;5011862;28;20423;-79
2020/12/20 09:02:23;;;;;;;13.20;11.90;;;6.50;99.90;;;;;;5011257;28;21028;-80
2020/12/20 09:05:15;;;;;;;13.80;12.40;;;6.60;99.90;;;;;;5012495;28;20422;-77
2020/12/20 09:07:44;;;;;;;14.47;12.10;;;6.60;99.90;;;;;;5013737;28;20581;-81
2020/12/20 09:10:20;;;;;;;13.60;12.13;;;6.70;99.90;;;;;;4993050;28;20434;-78
2020/12/20 09:12:50;;;;;;;13.03;11.80;;;6.70;99.90;;;;;;4982566;28;20478;-78
2020/12/20 09:15:18;;;;;;;13.53;12.17;;;6.70;99.90;;;;;;4989529;28;20842;-76
2020/12/20 09:17:48;;;;;;;14.20;12.70;;;6.60;99.90;;;;;;5002088;28;20431;-77
2020/12/20 09:20:17;;;;;;;15.80;14.10;;;6.70;99.90;;;;;;4990429;28;20947;-75
2020/12/20 09:22:55;;;;;;;13.77;12.37;;;6.80;99.90;;;;;;5005488;28;20549;-78
2020/12/20 09:25:44;;;;;;;14.23;12.73;;;6.90;99.90;;;;;;5007557;28;20419;-77
2020/12/20 09:28:18;;;;;;;14.50;12.83;;;6.80;99.90;;;;;;4981194;28;20462;-76
2020/12/20 09:30:46;;;;;;;14.27;12.77;;;6.90;99.90;;;;;;4975571;28;20497;-76
2020/12/20 09:33:19;;;;;;;16.80;13.10;;;6.80;99.90;;;;;;4985577;28;20451;-78
2020/12/20 09:36:14;;;;;;;13.93;12.53;;;6.90;99.90;;;;;;5010976;28;20518;-84
2020/12/20 09:38:42;;;;;;;14.93;12.50;;;7.00;99.90;;;;;;5017806;28;20462;-82
2020/12/20 09:41:14;;;;;;;12.60;11.40;;;7.00;99.90;;;;;;4994672;28;20985;-82
2020/12/20 09:43:40;;;;;;;12.53;11.13;;;7.00;99.90;;;;;;4994006;28;20441;-80
2020/12/20 09:46:06;;;;;;;13.60;12.00;;;7.00;99.90;;;;;;4994972;28;20470;-81
2020/12/20 09:48:32;;;;;;;14.07;12.57;;;7.00;99.90;;;;;;4994693;28;20473;-79
2020/12/20 09:50:58;;;;;;;13.10;11.50;;;7.00;99.90;;;;;;4995399;28;20847;-80
2020/12/20 09:53:23;;;;;;;15.00;13.40;;;7.00;99.90;;;;;;4993236;28;20211;-80
2020/12/20 09:55:49;;;;;;;15.20;13.60;;;7.10;99.90;;;;;;5010754;28;20223;-80
2020/12/20 09:58:15;;;;;;;15.77;13.40;;;7.10;99.90;;;;;;5012640;28;20393;-78
2020/12/20 10:00:42;;;;;;;15.00;12.77;;;7.30;99.90;;;;;;4990065;28;20672;-80
2020/12/20 10:03:08;;;;;;;16.53;14.73;;;7.30;99.90;;;;;;5013361;28;20466;-80
2020/12/20 10:05:35;;;;;;;15.90;13.43;;;7.30;99.90;;;;;;5005187;28;20534;-81
2020/12/20 10:08:01;;;;;;;15.00;13.40;;;7.30;99.90;;;;;;5025810;28;20486;-80
2020/12/20 10:10:27;;;;;;;16.80;15.00;;;7.30;99.90;;;;;;5019137;28;20525;-80
2020/12/20 10:12:53;;;;;;;16.03;14.33;;;7.30;99.90;;;;;;4965589;28;568665;-79
2020/12/20 10:15:18;;;;;;;17.47;14.30;;;7.20;99.90;;;;;;4990493;28;20180;-78
2020/12/20 10:17:45;;;;;;;16.33;14.63;;;7.30;99.90;;;;;;5008273;28;20764;-79
2020/12/20 10:20:10;;;;;;;17.47;15.77;;;7.30;99.90;;;;;;4980726;28;20199;-78
2020/12/20 10:22:36;;;;;;;16.53;14.60;;;7.30;99.90;;;;;;5004791;28;20474;-78
2020/12/20 10:25:04;;;;;;;18.00;16.10;;;7.30;99.90;;;;;;5010568;28;20652;-80
2020/12/20 10:27:29;;;;;;;19.07;16.90;;;7.40;99.90;;;;;;5009927;28;20438;-80
2020/12/20 10:29:55;;;;;;;18.57;16.57;;;7.40;99.90;;;;;;5009446;28;20453;-79
2020/12/20 10:32:20;;;;;;;17.03;15.33;;;7.40;99.90;;;;;;4988713;28;20227;-79
2020/12/20 10:34:47;;;;;;;16.60;14.90;;;7.50;99.90;;;;;;4979025;28;20192;-80
2020/12/20 10:37:12;;;;;;;17.27;14.33;;;7.60;99.90;;;;;;5002791;28;20230;-80
2020/12/20 10:39:38;;;;;;;18.17;15.77;;;7.60;99.90;;;;;;5011533;28;20832;-80
2020/12/20 10:42:03;;;;;;;16.73;14.97;;;7.60;99.90;;;;;;4991044;28;20302;-80
2020/12/20 10:44:29;;;;;;;16.07;13.97;;;7.70;99.90;;;;;;5006393;28;20259;-80
2020/12/20 10:46:55;;;;;;;16.83;15.13;;;7.90;99.90;;;;;;4993390;28;20235;-79
2020/12/20 10:49:21;;;;;;;18.60;16.63;;;7.90;99.90;;;;;;5005323;28;20680;-79
2020/12/20 10:51:55;;;;;;;16.30;14.70;;;8.00;99.90;;;;;;4986496;28;20291;-79
2020/12/20 10:54:22;;;;;;;15.90;14.23;;;7.90;99.90;;;;;;5002812;28;20543;-80
2020/12/20 10:56:48;;;;;;;15.90;14.23;;;7.90;99.90;;;;;;4996991;28;20553;-79
2020/12/20 10:59:13;;;;;;;15.57;13.97;;;7.90;99.90;;;;;;5005610;28;20506;-78
2020/12/20 11:01:39;;;;;;;15.90;14.23;;;7.80;99.90;;;;;;4991245;28;20474;-78
2020/12/20 11:04:05;;;;;;;16.50;14.13;;;7.60;99.90;;;;;;4991019;28;20215;-79
2020/12/20 11:06:31;;;;;;;19.60;15.47;;;7.70;99.90;;;;;;4991863;28;20214;-79
2020/12/20 11:08:56;;;;;;;19.33;15.20;;;7.60;99.90;;;;;;4992535;28;20220;-79
2020/12/20 11:11:28;;;;;;;17.37;14.57;;;7.60;99.90;;;;;;4990326;28;20524;-78
2020/12/20 11:13:54;;;;;;;17.57;15.73;;;7.50;99.90;;;;;;5008600;28;20193;-78
2020/12/20 11:16:19;;;;;;;16.20;14.17;;;7.40;99.90;;;;;;5011056;28;20454;-79
2020/12/20 11:18:46;;;;;;;18.13;16.07;;;7.30;99.90;;;;;;5012931;28;20187;-79
2020/12/20 11:21:16;;;;;;;18.77;15.27;;;7.20;99.90;;;;;;4995182;28;20211;-79
2020/12/20 11:23:45;;;;;;;17.87;15.70;;;7.20;99.90;;;;;;5010835;28;20450;-79
2020/12/20 11:26:18;;;;;;;17.47;15.50;;;7.30;99.90;;;;;;5012141;28;20429;-78
2020/12/20 11:28:45;;;;;;;20.50;15.83;;;7.30;99.90;;;;;;5010116;28;20986;-79
2020/12/20 11:31:16;;;;;;;20.80;17.23;;;7.20;99.90;;;;;;5008241;28;20434;-78
2020/12/20 11:33:42;;;;;;;20.43;18.17;;;7.20;99.90;;;;;;4990210;28;20426;-78
2020/12/20 11:36:07;;;;;;;21.30;16.27;;;7.20;99.90;;;;;;5007741;28;20506;-78
2020/12/20 11:38:34;;;;;;;19.63;15.53;;;7.20;99.90;;;;;;5008056;28;20203;-78
2020/12/20 11:41:00;;;;;;;23.07;17.17;;;7.10;99.90;;;;;;4990032;28;20184;-78
2020/12/20 11:43:26;;;;;;;19.30;17.20;;;7.00;99.90;;;;;;4990301;28;20541;-77
2020/12/20 11:45:52;;;;;;;17.77;15.50;;;7.00;99.90;;;;;;5007624;28;20451;-78
2020/12/20 11:48:18;;;;;;;22.40;16.23;;;7.00;99.90;;;;;;5008191;28;20212;-78
2020/12/20 11:50:43;;;;;;;19.77;16.57;;;7.10;99.90;;;;;;4990572;28;20184;-79
2020/12/20 11:53:09;;;;;;;17.90;15.33;;;7.10;99.90;;;;;;4990482;28;20204;-78
2020/12/20 11:55:35;;;;;;;20.00;17.10;;;7.10;99.90;;;;;;4990969;28;20191;-78
2020/12/20 11:58:01;;;;;;;19.73;15.97;;;7.30;99.90;;;;;;4995852;28;20438;-79
2020/12/20 12:00:28;;;;;;;20.17;16.47;;;7.30;99.90;;;;;;4995739;28;20195;-78
2020/12/20 12:02:54;;;;;;;19.17;16.93;;;7.30;99.90;;;;;;4999889;28;20506;-78
2020/12/20 12:05:19;;;;;;;19.30;16.53;;;7.40;99.90;;;;;;5000086;28;20482;-77
2020/12/20 12:07:45;;;;;;;23.47;19.50;;;7.20;99.90;;;;;;4998596;28;20470;-79
2020/12/20 12:10:11;;;;;;;24.90;19.13;;;7.30;99.90;;;;;;5007440;28;20176;-79
2020/12/20 12:12:36;;;;;;;20.50;18.00;;;7.40;99.90;;;;;;4989277;28;20540;-78
2020/12/20 12:15:02;;;;;;;21.57;17.60;;;7.40;99.90;;;;;;5007129;28;20255;-78
2020/12/20 12:17:28;;;;;;;23.83;18.43;;;7.50;99.90;;;;;;5007212;28;20180;-79
2020/12/20 12:19:55;;;;;;;20.00;17.90;;;7.70;99.90;;;;;;4989267;28;20175;-78
2020/12/20 12:22:21;;;;;;;20.30;18.20;;;7.80;99.90;;;;;;4989512;28;20629;-80
2020/12/20 12:24:47;;;;;;;21.07;18.43;;;7.80;99.90;;;;;;4988974;28;20415;-79
2020/12/20 12:27:12;;;;;;;21.20;17.37;;;8.00;99.90;;;;;;4989448;28;20923;-78
2020/12/20 12:29:39;;;;;;;21.83;17.83;;;8.00;99.90;;;;;;5006949;28;20207;-78
2020/12/20 12:32:04;;;;;;;19.90;16.60;;;7.90;99.90;;;;;;5006562;28;20265;-78
2020/12/20 12:34:30;;;;;;;22.20;17.30;;;8.00;99.90;;;;;;4989278;28;20426;-78
2020/12/20 12:36:55;;;;;;;20.40;18.20;;;8.00;99.90;;;;;;4989417;28;20564;-78
2020/12/20 12:39:21;;;;;;;21.20;18.10;;;8.00;99.90;;;;;;4989577;28;20179;-78
2020/12/20 12:41:46;;;;;;;22.27;17.10;;;8.00;99.90;;;;;;4989577;28;20235;-78
2020/12/20 12:44:12;;;;;;;19.17;17.27;;;8.00;99.90;;;;;;5007381;28;20195;-79
2020/12/20 12:46:39;;;;;;;21.47;18.73;;;8.00;99.90;;;;;;5008330;28;20184;-78
2020/12/20 12:49:05;;;;;;;21.57;19.00;;;8.00;99.90;;;;;;5007111;28;20231;-78